createdAt,value
2019-05-21T00:02:30.773Z,63.30
2019-05-21T00:05:01.597Z,64.20
2019-05-21T00:07:32.393Z,64.20
2019-05-21T00:10:03.660Z,63.80
2019-05-21T00:12:35.802Z,64.00
2019-05-21T00:15:07.737Z,64.40
2019-05-21T00:17:38.568Z,64.20
2019-05-21T00:20:10.233Z,63.10
2019-05-21T00:22:41.373Z,62.40
2019-05-21T00:25:17.324Z,62.30
2019-05-21T00:27:48.792Z,62.60
2019-05-21T00:30:25.056Z,62.10
2019-05-21T00:32:58.210Z,63.00
2019-05-21T00:35:36.002Z,62.90
2019-05-21T00:38:15.011Z,61.60
2019-05-21T00:40:58.635Z,61.60
2019-05-21T00:43:33.119Z,61.90
2019-05-21T00:46:05.435Z,61.60
2019-05-21T00:48:36.589Z,61.70
2019-05-21T00:51:08.778Z,61.60
2019-05-21T00:53:41.511Z,61.30
2019-05-21T00:56:12.770Z,61.10
2019-05-21T00:58:45.385Z,60.90
2019-05-21T01:01:16.674Z,60.80
2019-05-21T01:03:51.628Z,60.60
2019-05-21T01:06:24.573Z,60.30
2019-05-21T01:09:00.350Z,60.10
2019-05-21T01:11:37.597Z,60.00
2019-05-21T01:14:09.309Z,59.80
2019-05-21T01:16:41.882Z,59.80
2019-05-21T01:19:14.835Z,59.70
2019-05-21T01:21:48.946Z,60.00
2019-05-21T01:24:23.206Z,59.40
2019-05-21T01:26:54.402Z,59.40
2019-05-21T01:29:25.690Z,59.40
2019-05-21T01:32:00.936Z,59.30
2019-05-21T01:34:36.185Z,59.20
2019-05-21T01:37:10.345Z,59.10
2019-05-21T01:39:41.391Z,59.10
2019-05-21T01:42:16.105Z,58.90
2019-05-21T01:44:48.670Z,58.90
2019-05-21T01:47:20.207Z,58.80
2019-05-21T01:49:51.779Z,58.40
2019-05-21T01:52:27.787Z,58.80
2019-05-21T01:55:00.731Z,58.60
2019-05-21T01:57:31.726Z,58.60
2019-05-21T02:00:03.053Z,58.50
2019-05-21T02:02:34.663Z,58.30
2019-05-21T02:05:08.016Z,58.30
2019-05-21T02:07:40.594Z,58.00
2019-05-21T02:10:12.205Z,57.60
2019-05-21T02:12:43.339Z,57.60
2019-05-21T02:15:14.407Z,57.50
2019-05-21T02:17:45.366Z,57.30
2019-05-21T02:20:20.772Z,57.20
2019-05-21T02:22:52.203Z,57.60
2019-05-21T02:25:23.188Z,56.90
2019-05-21T02:27:54.364Z,56.90
2019-05-21T02:30:31.249Z,56.60
2019-05-21T02:33:02.506Z,56.60
2019-05-21T02:35:51.019Z,56.60
2019-05-21T02:38:07.255Z,56.30
2019-05-21T02:40:42.519Z,56.20
2019-05-21T02:43:16.557Z,55.80
2019-05-21T02:45:47.732Z,56.20
2019-05-21T02:48:23.843Z,55.70
2019-05-21T02:50:58.465Z,55.70
2019-05-21T02:53:34.623Z,55.80
2019-05-21T02:56:19.558Z,55.50
2019-05-21T02:58:53.523Z,55.90
2019-05-21T03:01:25.705Z,55.90
2019-05-21T03:03:57.059Z,55.50
2019-05-21T03:06:31.104Z,54.80
2019-05-21T03:09:02.248Z,54.00
2019-05-21T03:11:33.166Z,54.40
2019-05-21T03:14:04.246Z,54.10
2019-05-21T03:16:35.240Z,54.00
2019-05-21T03:19:10.508Z,54.00
2019-05-21T03:21:41.791Z,54.20
2019-05-21T03:24:14.300Z,53.10
2019-05-21T03:26:45.338Z,53.60
2019-05-21T03:29:30.221Z,53.60
2019-05-21T03:32:01.815Z,54.30
2019-05-21T03:34:36.309Z,54.20
2019-05-21T03:37:11.910Z,53.90
2019-05-21T03:39:46.755Z,53.40
2019-05-21T03:42:17.929Z,52.30
2019-05-21T03:44:59.518Z,52.80
2019-05-21T03:47:22.323Z,53.40
2019-05-21T03:49:54.124Z,53.40
2019-05-21T03:52:25.028Z,53.70
2019-05-21T03:54:56.339Z,53.30
2019-05-21T03:57:27.610Z,53.70
2019-05-21T04:00:01.584Z,53.50
2019-05-21T04:02:40.703Z,53.40
2019-05-21T04:05:14.858Z,52.80
2019-05-21T04:11:07.875Z,51.60
2019-05-21T04:13:38.883Z,52.50
2019-05-21T04:16:14.653Z,53.00
2019-05-21T04:18:50.007Z,52.20
2019-05-21T04:21:22.496Z,51.30
2019-05-21T04:23:54.538Z,51.40
2019-05-21T04:26:25.744Z,51.60
2019-05-21T04:28:59.557Z,51.00
2019-05-21T04:31:43.947Z,51.30
2019-05-21T04:34:17.353Z,52.40
2019-05-21T04:36:48.479Z,52.10
2019-05-21T04:39:19.583Z,52.00
2019-05-21T04:41:50.698Z,51.40
2019-05-21T04:44:23.317Z,52.10
2019-05-21T04:46:54.465Z,51.90
2019-05-21T04:49:25.553Z,51.60
2019-05-21T04:51:56.845Z,51.70
2019-05-21T04:54:28.918Z,52.10
2019-05-21T04:57:00.426Z,51.90
2019-05-21T04:59:31.721Z,52.70
2019-05-21T05:02:02.947Z,52.60
2019-05-21T05:08:09.624Z,51.60
2019-05-21T05:10:41.756Z,50.50
2019-05-21T05:13:15.566Z,49.80
2019-05-21T05:15:46.964Z,49.70
2019-05-21T05:18:17.962Z,47.90
2019-05-21T05:20:50.682Z,49.60
2019-05-21T05:23:25.616Z,48.00
2019-05-21T05:25:56.859Z,49.10
2019-05-21T05:28:27.967Z,47.80
2019-05-21T05:31:00.955Z,48.90
2019-05-21T05:33:32.003Z,49.30
2019-05-21T05:36:03.088Z,48.50
2019-05-21T05:38:36.401Z,50.00
2019-05-21T05:41:08.313Z,49.60
2019-05-21T05:43:39.629Z,48.20
2019-05-21T05:46:12.496Z,48.50
2019-05-21T05:48:44.771Z,50.10
2019-05-21T05:51:15.733Z,49.90
2019-05-21T05:53:49.456Z,50.10
2019-05-21T05:56:20.839Z,49.90
2019-05-21T05:58:54.771Z,50.50
2019-05-21T06:01:26.946Z,48.90
2019-05-21T06:03:58.233Z,50.00
2019-05-21T06:06:29.596Z,50.40
2019-05-21T06:09:03.321Z,50.30
2019-05-21T06:11:45.144Z,49.40
2019-05-21T06:16:54.783Z,48.70
2019-05-21T06:19:25.786Z,49.60
2019-05-21T06:21:59.798Z,46.40
2019-05-21T06:24:31.095Z,48.40
2019-05-21T06:27:02.088Z,47.90
2019-05-21T06:29:33.670Z,47.60
2019-05-21T06:32:04.760Z,47.90
2019-05-21T06:34:48.794Z,48.70
2019-05-21T06:37:20.046Z,48.40
2019-05-21T06:39:51.240Z,46.70
2019-05-21T06:42:30.698Z,45.30
2019-05-21T06:45:04.110Z,47.00
2019-05-21T06:47:35.057Z,47.50
2019-05-21T06:50:07.199Z,46.80
2019-05-21T06:52:38.322Z,45.70
2019-05-21T06:55:10.021Z,46.20
2019-05-21T06:57:40.975Z,47.70
2019-05-21T07:00:13.890Z,47.60
2019-05-21T07:02:45.270Z,47.80
2019-05-21T07:05:23.355Z,47.00
2019-05-21T07:08:31.869Z,47.40
2019-05-21T07:10:49.190Z,47.50
2019-05-21T07:13:20.189Z,47.60
2019-05-21T07:15:51.256Z,46.70
2019-05-21T07:18:27.812Z,46.50
2019-05-21T07:20:59.359Z,47.20
2019-05-21T07:23:30.281Z,47.30
2019-05-21T07:26:04.342Z,47.20
2019-05-21T07:28:35.384Z,46.90
2019-05-21T07:31:08.908Z,47.00
2019-05-21T07:33:40.256Z,46.30
2019-05-21T07:36:14.582Z,46.30
2019-05-21T07:38:53.493Z,47.10
2019-05-21T07:41:21.270Z,45.70
2019-05-21T07:44:01.029Z,46.10
2019-05-21T07:46:32.253Z,44.90
2019-05-21T07:49:03.441Z,46.80
2019-05-21T07:51:35.974Z,47.20
2019-05-21T07:54:08.309Z,46.80
2019-05-21T07:56:42.662Z,47.30
2019-05-21T07:59:15.311Z,47.10
2019-05-21T08:01:48.202Z,47.10
2019-05-21T08:04:18.854Z,45.90
2019-05-21T08:06:54.585Z,47.40
2019-05-21T08:09:25.538Z,47.30
2019-05-21T08:11:57.485Z,47.10
2019-05-21T08:14:43.407Z,47.20
2019-05-21T08:17:15.219Z,46.60
2019-05-21T08:26:21.331Z,46.60
2019-05-21T08:28:57.248Z,46.50
2019-05-21T08:31:37.771Z,46.90
2019-05-21T08:34:24.375Z,45.70
2019-05-21T08:37:04.870Z,46.20
2019-05-21T08:39:48.128Z,45.70
2019-05-21T08:42:18.878Z,46.30
2019-05-21T08:44:52.197Z,46.10
2019-05-21T08:47:33.904Z,46.00
2019-05-21T08:50:07.900Z,47.10
2019-05-21T08:52:40.314Z,46.00
2019-05-21T08:55:11.865Z,46.30
2019-05-21T08:57:44.577Z,46.20
2019-05-21T09:00:18.323Z,46.90
2019-05-21T09:02:49.540Z,47.00
2019-05-21T09:05:20.727Z,47.30
2019-05-21T09:07:53.889Z,46.90
2019-05-21T09:10:25.288Z,45.60
2019-05-21T09:12:56.724Z,46.70
2019-05-21T09:15:27.935Z,46.70
2019-05-21T09:17:59.805Z,46.30
2019-05-21T09:20:31.191Z,45.20
2019-05-21T09:23:03.555Z,45.90
2019-05-21T09:25:34.854Z,45.90
2019-05-21T09:28:06.071Z,45.80
2019-05-21T09:30:36.995Z,46.40
2019-05-21T09:33:08.048Z,47.10
2019-05-21T09:35:42.786Z,46.50
2019-05-21T09:38:14.224Z,46.80
2019-05-21T09:40:45.516Z,47.00
2019-05-21T09:43:18.783Z,46.60
2019-05-21T09:45:52.608Z,46.30
2019-05-21T09:48:23.643Z,46.80
2019-05-21T09:50:54.743Z,47.40
2019-05-21T09:53:25.670Z,48.50
2019-05-21T09:56:01.070Z,48.90
2019-05-21T09:58:35.483Z,49.30
2019-05-21T10:01:15.820Z,49.70
2019-05-21T10:03:48.048Z,50.30
2019-05-21T10:06:20.546Z,51.10
2019-05-21T10:09:02.021Z,51.20
2019-05-21T10:11:32.865Z,52.00
2019-05-21T10:14:05.888Z,51.90
2019-05-21T10:16:45.793Z,52.00
2019-05-21T10:19:17.956Z,52.60
2019-05-21T10:21:49.176Z,52.30
2019-05-21T10:27:52.829Z,52.30
2019-05-21T10:30:23.209Z,52.50
2019-05-21T10:32:57.372Z,52.60
2019-05-21T10:35:29.675Z,52.90
2019-05-21T10:38:03.660Z,52.70
2019-05-21T10:40:37.202Z,53.00
2019-05-21T10:43:08.384Z,53.10
2019-05-21T10:45:41.562Z,53.80
2019-05-21T10:48:12.785Z,54.10
2019-05-21T10:50:43.654Z,53.60
2019-05-21T10:53:18.796Z,54.10
2019-05-21T10:55:50.690Z,53.60
2019-05-21T10:58:21.880Z,55.30
2019-05-21T11:00:54.351Z,55.90
2019-05-21T11:03:29.628Z,56.10
2019-05-21T11:06:09.440Z,54.60
2019-05-21T11:08:33.269Z,55.00
2019-05-21T11:11:04.281Z,56.70
2019-05-21T11:13:35.497Z,57.40
2019-05-21T11:16:07.143Z,57.10
2019-05-21T11:18:38.067Z,57.90
2019-05-21T11:21:09.653Z,58.60
2019-05-21T11:23:41.685Z,56.60
2019-05-21T11:26:15.064Z,57.50
2019-05-21T11:28:46.248Z,57.60
2019-05-21T11:31:17.507Z,58.10
2019-05-21T11:33:48.302Z,57.70
2019-05-21T11:36:19.275Z,57.50
2019-05-21T11:38:50.502Z,57.40
2019-05-21T11:41:22.429Z,56.50
2019-05-21T11:43:53.204Z,56.80
2019-05-21T11:46:24.029Z,55.60
2019-05-21T11:48:55.193Z,55.70
2019-05-21T11:51:26.244Z,55.70
2019-05-21T11:53:57.345Z,56.90
2019-05-21T11:56:28.489Z,56.90
2019-05-21T11:58:59.501Z,56.80
2019-05-21T12:01:30.725Z,60.80
2019-05-21T12:04:01.703Z,58.50
2019-05-21T12:06:32.695Z,57.50
2019-05-21T12:09:03.922Z,57.50
2019-05-21T12:11:34.818Z,58.10
2019-05-21T12:14:06.220Z,57.70
2019-05-21T12:16:37.675Z,58.30
2019-05-21T12:19:08.976Z,58.00
2019-05-21T12:21:39.973Z,58.00
2019-05-21T12:24:10.962Z,58.90
2019-05-21T12:26:42.281Z,58.30
2019-05-21T12:29:13.194Z,59.30
2019-05-21T12:31:44.253Z,59.30
2019-05-21T12:34:15.425Z,59.60
2019-05-21T12:36:46.448Z,58.40
2019-05-21T12:39:17.568Z,59.50
2019-05-21T12:41:48.825Z,60.00
2019-05-21T12:44:19.836Z,60.60
2019-05-21T12:46:50.774Z,62.90
2019-05-21T12:49:22.078Z,61.60
2019-05-21T12:51:53.093Z,62.20
2019-05-21T12:54:23.980Z,61.30
2019-05-21T12:56:55.016Z,64.10
2019-05-21T12:59:26.325Z,63.50
2019-05-21T13:01:57.370Z,63.20
2019-05-21T13:04:28.445Z,63.10
2019-05-21T13:06:59.462Z,63.90
2019-05-21T13:09:32.906Z,62.80
2019-05-21T13:12:03.138Z,62.90
2019-05-21T13:14:37.063Z,64.10
2019-05-21T13:17:08.236Z,63.00
2019-05-21T13:19:39.297Z,65.50
2019-05-21T13:22:12.884Z,65.50
2019-05-21T13:24:43.910Z,63.50
2019-05-21T13:27:14.876Z,63.10
2019-05-21T13:29:46.174Z,62.50
2019-05-21T13:32:17.059Z,62.60
2019-05-21T13:34:48.265Z,62.80
2019-05-21T13:37:22.642Z,63.70
2019-05-21T13:39:53.534Z,63.20
2019-05-21T13:42:24.717Z,62.60
2019-05-21T13:44:55.556Z,62.30
2019-05-21T13:47:26.479Z,62.70
2019-05-21T13:49:57.707Z,61.80
2019-05-21T13:52:28.937Z,64.90
2019-05-21T13:54:59.748Z,64.70
2019-05-21T13:57:30.652Z,64.60
2019-05-21T14:00:01.985Z,65.20
2019-05-21T14:02:33.749Z,63.20
2019-05-21T14:05:04.594Z,62.70
2019-05-21T14:07:35.865Z,63.60
2019-05-21T14:10:15.005Z,62.80
2019-05-21T14:12:40.600Z,62.10
2019-05-21T14:15:12.228Z,62.60
2019-05-21T14:17:43.278Z,62.60
2019-05-21T14:20:14.298Z,62.10
2019-05-21T14:22:45.541Z,64.80
2019-05-21T14:25:16.824Z,65.10
2019-05-21T14:27:47.967Z,66.20
2019-05-21T14:30:19.416Z,65.70
2019-05-21T14:32:50.676Z,65.30
2019-05-21T14:35:21.598Z,65.00
2019-05-21T14:37:52.736Z,65.90
2019-05-21T14:40:31.817Z,65.50
2019-05-21T14:42:59.655Z,64.20
2019-05-21T14:45:33.744Z,65.70
2019-05-21T14:48:01.669Z,65.30
2019-05-21T14:50:32.786Z,65.20
2019-05-21T14:53:03.856Z,65.50
2019-05-21T14:55:34.978Z,63.30
2019-05-21T14:58:05.963Z,63.70
2019-05-21T15:00:38.778Z,64.40
2019-05-21T15:03:24.183Z,64.30
2019-05-21T15:05:42.355Z,66.70
2019-05-21T15:08:13.296Z,65.60
2019-05-21T15:10:48.943Z,65.50
2019-05-21T15:13:17.165Z,65.90
2019-05-21T15:15:48.074Z,65.80
2019-05-21T15:18:21.981Z,65.80
2019-05-21T15:20:52.576Z,65.80
2019-05-21T15:23:23.607Z,64.30
2019-05-21T15:25:54.848Z,64.90
2019-05-21T15:28:26.131Z,64.30
2019-05-21T15:30:57.400Z,63.80
2019-05-21T15:33:28.636Z,64.00
2019-05-21T15:36:00.099Z,65.20
2019-05-21T15:38:48.494Z,64.90
2019-05-21T15:41:10.119Z,63.90
2019-05-21T15:43:35.906Z,63.60
2019-05-21T15:46:07.023Z,65.00
2019-05-21T15:48:37.969Z,64.80
2019-05-21T15:51:08.975Z,64.50
2019-05-21T15:53:40.022Z,64.70
2019-05-21T15:56:11.275Z,63.70
2019-05-21T15:58:42.133Z,64.50
2019-05-21T16:01:12.871Z,64.90
2019-05-21T16:03:43.795Z,65.70
2019-05-21T16:06:14.774Z,65.90
2019-05-21T16:08:45.923Z,64.90
2019-05-21T16:11:28.214Z,64.80
2019-05-21T16:13:49.792Z,65.80
2019-05-21T16:16:21.056Z,66.10
2019-05-21T16:18:51.907Z,64.20
2019-05-21T16:21:23.150Z,64.80
2019-05-21T16:23:54.258Z,66.70
2019-05-21T16:26:25.234Z,66.80
2019-05-21T16:28:56.495Z,67.20
2019-05-21T16:31:27.361Z,67.10
2019-05-21T16:33:58.148Z,65.60
2019-05-21T16:36:29.474Z,64.80
2019-05-21T16:39:00.701Z,66.70
2019-05-21T16:41:43.606Z,65.00
2019-05-21T16:44:03.976Z,66.00
2019-05-21T16:46:35.215Z,66.40
2019-05-21T16:49:06.094Z,66.00
2019-05-21T16:51:37.321Z,67.20
2019-05-21T16:54:08.636Z,66.00
2019-05-21T16:56:39.837Z,65.10
2019-05-21T16:59:13.700Z,65.00
2019-05-21T17:01:45.166Z,65.60
2019-05-21T17:07:12.472Z,66.20
2019-05-21T17:09:43.340Z,66.00
2019-05-21T17:12:14.535Z,65.90
2019-05-21T17:14:45.779Z,64.70
2019-05-21T17:17:16.666Z,66.50
2019-05-21T17:19:47.578Z,65.70
2019-05-21T17:22:18.717Z,65.40
2019-05-21T17:24:50.444Z,66.40
2019-05-21T17:27:21.530Z,65.10
2019-05-21T17:29:52.803Z,65.30
2019-05-21T17:32:23.907Z,67.30
2019-05-21T17:34:54.950Z,66.50
2019-05-21T17:37:25.999Z,65.70
2019-05-21T17:39:57.143Z,65.50
2019-05-21T17:42:27.933Z,65.40
2019-05-21T17:44:59.196Z,65.30
2019-05-21T17:47:30.317Z,67.00
2019-05-21T17:50:01.293Z,66.40
2019-05-21T17:52:32.273Z,70.30
2019-05-21T17:55:03.458Z,70.00
2019-05-21T17:57:35.044Z,68.70
2019-05-21T18:00:08.558Z,68.70
2019-05-21T18:02:40.541Z,70.30
2019-05-21T18:05:12.497Z,69.20
2019-05-21T18:07:44.618Z,68.70
2019-05-21T18:10:17.950Z,69.10
2019-05-21T18:12:48.891Z,69.50
2019-05-21T18:15:20.147Z,69.20
2019-05-21T18:17:51.380Z,70.70
2019-05-21T18:20:22.649Z,69.80
2019-05-21T18:22:55.378Z,69.90
2019-05-21T18:25:27.636Z,70.00
2019-05-21T18:28:05.303Z,69.80
2019-05-21T18:30:36.481Z,70.80
2019-05-21T18:33:07.838Z,71.70
2019-05-21T18:35:40.138Z,70.30
2019-05-21T18:38:12.842Z,69.70
2019-05-21T18:40:43.994Z,68.20
2019-05-21T18:43:15.155Z,70.80
2019-05-21T18:45:45.828Z,70.40
2019-05-21T18:48:16.961Z,74.60
2019-05-21T18:50:48.010Z,69.90
2019-05-21T18:53:19.115Z,73.90
2019-05-21T18:55:50.262Z,71.10
2019-05-21T18:58:21.553Z,72.60
2019-05-21T19:00:52.550Z,70.70
2019-05-21T19:03:26.527Z,72.70
2019-05-21T19:05:56.181Z,73.50
2019-05-21T19:08:26.925Z,71.50
2019-05-21T19:10:57.996Z,70.20
2019-05-21T19:13:28.887Z,71.00
2019-05-21T19:15:59.795Z,71.00
2019-05-21T19:18:30.919Z,69.90
2019-05-21T19:21:01.834Z,70.30
2019-05-21T19:23:32.918Z,71.10
2019-05-21T19:26:03.894Z,71.30
2019-05-21T19:28:34.878Z,70.50
2019-05-21T19:31:05.860Z,73.30
2019-05-21T19:33:37.088Z,71.50
2019-05-21T19:36:11.400Z,70.50
2019-05-21T19:38:42.619Z,71.90
2019-05-21T19:41:13.723Z,71.10
2019-05-21T19:43:44.816Z,72.90
2019-05-21T19:46:15.895Z,71.50
2019-05-21T19:48:46.884Z,73.70
2019-05-21T19:51:17.827Z,74.60
2019-05-21T19:53:48.983Z,72.30
2019-05-21T19:56:19.895Z,72.40
2019-05-21T19:58:51.181Z,73.20
2019-05-21T20:01:22.288Z,72.90
2019-05-21T20:03:53.884Z,73.10
2019-05-21T20:06:25.078Z,73.20
2019-05-21T20:08:57.278Z,73.60
2019-05-21T20:11:28.385Z,75.40
2019-05-21T20:13:59.584Z,75.40
2019-05-21T20:16:31.049Z,74.30
2019-05-21T20:19:02.466Z,74.40
2019-05-21T20:21:34.244Z,74.20
2019-05-21T20:24:07.341Z,73.70
2019-05-21T20:26:39.108Z,74.20
2019-05-21T20:29:10.254Z,75.50
2019-05-21T20:31:42.159Z,76.40
2019-05-21T20:34:13.388Z,74.30
2019-05-21T20:36:44.691Z,75.00
2019-05-21T20:39:17.100Z,75.00
2019-05-21T20:41:49.307Z,75.20
2019-05-21T20:44:21.027Z,75.20
2019-05-21T20:46:52.921Z,76.40
2019-05-21T20:49:24.523Z,76.60
2019-05-21T20:51:56.077Z,78.00
2019-05-21T20:54:29.186Z,75.10
2019-05-21T20:57:00.095Z,76.10
2019-05-21T20:59:30.882Z,76.20
2019-05-21T21:02:05.647Z,74.90
2019-05-21T21:04:34.602Z,76.00
2019-05-21T21:07:06.553Z,79.90
2019-05-21T21:09:37.563Z,79.80
2019-05-21T21:12:09.997Z,78.20
2019-05-21T21:14:41.281Z,82.10
2019-05-21T21:17:12.975Z,82.10
2019-05-21T21:19:44.599Z,80.40
2019-05-21T21:22:15.828Z,79.80
2019-05-21T21:24:47.293Z,82.80
2019-05-21T21:27:18.296Z,82.30
2019-05-21T21:29:49.224Z,81.80
2019-05-21T21:32:20.489Z,84.10
2019-05-21T21:34:51.666Z,81.40
2019-05-21T21:37:23.226Z,79.50
2019-05-21T21:39:54.479Z,79.20
2019-05-21T21:42:25.347Z,79.70
2019-05-21T21:44:56.821Z,77.70
2019-05-21T21:47:28.993Z,82.10
2019-05-21T21:50:00.762Z,81.40
2019-05-21T21:52:32.851Z,80.00
2019-05-21T21:55:05.389Z,79.60
2019-05-21T21:57:36.393Z,79.40
2019-05-21T22:00:10.183Z,79.70
2019-05-21T22:02:41.171Z,80.30
2019-05-21T22:05:13.610Z,79.70
2019-05-21T22:07:44.774Z,82.90
2019-05-21T22:10:15.690Z,81.80
2019-05-21T22:12:46.754Z,80.00
2019-05-21T22:15:17.775Z,83.70
2019-05-21T22:17:49.492Z,81.20
2019-05-21T22:20:22.233Z,80.50
2019-05-21T22:22:53.360Z,81.60
2019-05-21T22:25:24.735Z,80.30
2019-05-21T22:27:57.899Z,80.00
2019-05-21T22:30:30.370Z,80.60
2019-05-21T22:33:01.543Z,80.00
2019-05-21T22:35:32.400Z,81.50
2019-05-21T22:38:03.639Z,81.10
2019-05-21T22:40:34.842Z,80.90
2019-05-21T22:43:06.128Z,81.50
2019-05-21T22:45:37.096Z,79.60
2019-05-21T22:48:08.802Z,79.40
2019-05-21T22:50:39.549Z,79.60
2019-05-21T22:53:11.018Z,79.30
2019-05-21T22:55:42.070Z,80.50
2019-05-21T22:58:12.937Z,82.30
2019-05-21T23:00:44.405Z,82.90
2019-05-21T23:03:15.689Z,82.80
2019-05-21T23:05:46.369Z,83.80
2019-05-21T23:08:18.671Z,82.40
2019-05-21T23:10:49.828Z,84.10
2019-05-21T23:13:21.703Z,83.60
2019-05-21T23:15:53.971Z,83.10
2019-05-21T23:18:24.936Z,83.00
2019-05-21T23:20:58.530Z,83.20
2019-05-21T23:23:29.640Z,84.20
2019-05-21T23:26:00.886Z,83.30
2019-05-21T23:28:32.274Z,83.90
2019-05-21T23:31:04.371Z,85.00
2019-05-21T23:33:36.317Z,84.90
2019-05-21T23:36:07.983Z,85.20
2019-05-21T23:38:39.546Z,85.90
2019-05-21T23:41:11.026Z,85.30
2019-05-21T23:43:42.646Z,84.60
2019-05-21T23:46:15.625Z,83.90
2019-05-21T23:48:46.582Z,82.70
2019-05-21T23:51:17.720Z,82.00
2019-05-21T23:53:49.218Z,82.10
2019-05-21T23:56:20.225Z,82.50
2019-05-21T23:58:51.480Z,82.20
